Jou Jou — DA3423 — position and weather

sailwx.info

Track history (hours):
 
Tides and Currents Weather Stations Pressure Air Temp Water Temp Dewpoint Dewpoint Depression Visibility Wind Speed Wind Dir Waves Ship Positions

Jou Jou

Last reported at 2013-Jul-23 13:23 UTC. Time now 2014-Jul-29 23:05 UTC.
Position N 54°53' E 009°53'.
Warning: this ship's position is years out of date!

Length 12 m.

Type: Sailing vessel. MMSI: 211187970.

Date/timePositionNaut miles runAvg speedWind from/ knotsBaromVisibWave heightAir tempDewpointWater temp
2013-Jul-23 13:23N 54°53' E 009°53'4 4.3
2013-Jul-23 12:33N 54°51' E 009°49'4 3.7
2013-Jul-23 11:33N 54°50' E 009°43'4 3.9
2013-Jul-23 10:30N 54°53' E 009°38'  
2013-Jul-20 12:11N 54°53' E 009°35'3 4.8
2013-Jul-20 11:33N 54°51' E 009°39'5 5.0
2013-Jul-20 10:32N 54°51' E 009°48'4 3.8
2013-Jul-20 09:33N 54°55' E 009°46'5 5.4
2013-Jul-20 08:34N 55°00' E 009°43'3 2.5
2013-Jul-20 07:32N 55°03' E 009°42'0 0.0
2013-Jul-18 14:32N 55°03' E 009°42'3 3.1
2013-Jul-18 13:32N 54°60' E 009°44'5 5.5
2013-Jul-18 12:33N 54°55' E 009°47'4 3.7
2013-Jul-18 11:33N 54°52' E 009°51'  
Track history (hours):
 
Tides and Currents Weather Stations Pressure Air Temp Water Temp Dewpoint Dewpoint Depression Visibility Wind Speed Wind Dir Waves Ship Positions

Jou Jou

Last reported at 2013-Jul-23 13:23 UTC. Time now 2014-Jul-29 23:05 UTC.
Position N 54°53' E 009°53'.
Warning: this ship's position is years out of date!

Length 12 m.

Type: Sailing vessel. MMSI: 211187970.

Date/timePositionNaut miles runAvg speedWind from/ knotsBaromVisibWave heightAir tempDewpointWater temp
2013-Jul-23 13:23N 54°53' E 009°53'4 4.3
2013-Jul-23 12:33N 54°51' E 009°49'4 3.7
2013-Jul-23 11:33N 54°50' E 009°43'4 3.9
2013-Jul-23 10:30N 54°53' E 009°38'  
2013-Jul-20 12:11N 54°53' E 009°35'3 4.8
2013-Jul-20 11:33N 54°51' E 009°39'5 5.0
2013-Jul-20 10:32N 54°51' E 009°48'4 3.8
2013-Jul-20 09:33N 54°55' E 009°46'5 5.4
2013-Jul-20 08:34N 55°00' E 009°43'3 2.5
2013-Jul-20 07:32N 55°03' E 009°42'0 0.0
2013-Jul-18 14:32N 55°03' E 009°42'3 3.1
2013-Jul-18 13:32N 54°60' E 009°44'5 5.5
2013-Jul-18 12:33N 54°55' E 009°47'4 3.7
2013-Jul-18 11:33N 54°52' E 009°51'  

Dump ship's entire track history